sensor_id;sensor_type;location;lat;lon;timestamp;P1;durP1;ratioP1;P2;durP2;ratioP2
12577;SDS011;6354;51.026;8.968;2022-09-09T00:01:59;5.23;;;2.60;;
12577;SDS011;6354;51.026;8.968;2022-09-09T00:04:31;4.20;;;2.70;;
12577;SDS011;6354;51.026;8.968;2022-09-09T00:07:03;4.93;;;2.53;;
12577;SDS011;6354;51.026;8.968;2022-09-09T00:09:36;5.30;;;2.77;;
12577;SDS011;6354;51.026;8.968;2022-09-09T00:12:16;3.27;;;2.97;;
12577;SDS011;6354;51.026;8.968;2022-09-09T00:14:50;4.43;;;2.83;;
12577;SDS011;6354;51.026;8.968;2022-09-09T00:17:26;3.83;;;2.53;;
12577;SDS011;6354;51.026;8.968;2022-09-09T00:20:03;5.77;;;2.70;;
12577;SDS011;6354;51.026;8.968;2022-09-09T00:22:42;6.37;;;3.10;;
12577;SDS011;6354;51.026;8.968;2022-09-09T00:25:19;4.70;;;3.00;;
12577;SDS011;6354;51.026;8.968;2022-09-09T00:27:51;6.57;;;3.20;;
12577;SDS011;6354;51.026;8.968;2022-09-09T00:30:20;4.43;;;2.77;;
12577;SDS011;6354;51.026;8.968;2022-09-09T00:32:52;5.03;;;2.90;;
12577;SDS011;6354;51.026;8.968;2022-09-09T00:35:25;7.30;;;2.90;;
12577;SDS011;6354;51.026;8.968;2022-09-09T00:38:00;4.40;;;3.00;;
12577;SDS011;6354;51.026;8.968;2022-09-09T00:40:34;5.00;;;2.47;;
12577;SDS011;6354;51.026;8.968;2022-09-09T00:43:09;3.50;;;2.30;;
12577;SDS011;6354;51.026;8.968;2022-09-09T00:45:54;4.00;;;2.10;;
12577;SDS011;6354;51.026;8.968;2022-09-09T00:48:39;4.87;;;2.30;;
12577;SDS011;6354;51.026;8.968;2022-09-09T00:51:15;3.50;;;2.30;;
12577;SDS011;6354;51.026;8.968;2022-09-09T00:56:57;5.00;;;2.60;;
12577;SDS011;6354;51.026;8.968;2022-09-09T00:59:42;4.77;;;2.70;;
12577;SDS011;6354;51.026;8.968;2022-09-09T01:02:18;6.03;;;2.80;;
12577;SDS011;6354;51.026;8.968;2022-09-09T01:04:56;3.47;;;2.53;;
12577;SDS011;6354;51.026;8.968;2022-09-09T01:07:29;7.23;;;2.77;;
12577;SDS011;6354;51.026;8.968;2022-09-09T01:09:59;5.20;;;3.07;;
12577;SDS011;6354;51.026;8.968;2022-09-09T01:12:34;6.20;;;2.63;;
12577;SDS011;6354;51.026;8.968;2022-09-09T01:15:10;2.83;;;2.50;;
12577;SDS011;6354;51.026;8.968;2022-09-09T01:17:46;6.87;;;2.90;;
12577;SDS011;6354;51.026;8.968;2022-09-09T01:20:21;6.67;;;3.10;;
12577;SDS011;6354;51.026;8.968;2022-09-09T01:23:08;4.83;;;2.60;;
12577;SDS011;6354;51.026;8.968;2022-09-09T01:28:43;4.30;;;2.73;;
12577;SDS011;6354;51.026;8.968;2022-09-09T01:31:14;2.73;;;2.40;;
12577;SDS011;6354;51.026;8.968;2022-09-09T01:33:45;5.20;;;2.77;;
12577;SDS011;6354;51.026;8.968;2022-09-09T01:36:15;7.67;;;3.10;;
12577;SDS011;6354;51.026;8.968;2022-09-09T01:38:52;4.50;;;3.00;;
12577;SDS011;6354;51.026;8.968;2022-09-09T01:41:22;5.23;;;3.00;;
12577;SDS011;6354;51.026;8.968;2022-09-09T01:43:50;4.90;;;2.97;;
12577;SDS011;6354;51.026;8.968;2022-09-09T01:46:18;7.00;;;3.70;;
12577;SDS011;6354;51.026;8.968;2022-09-09T01:48:50;4.63;;;3.07;;
12577;SDS011;6354;51.026;8.968;2022-09-09T01:51:19;4.80;;;3.33;;
12577;SDS011;6354;51.026;8.968;2022-09-09T01:53:48;7.47;;;3.23;;
12577;SDS011;6354;51.026;8.968;2022-09-09T01:56:24;5.57;;;3.30;;
12577;SDS011;6354;51.026;8.968;2022-09-09T01:59:03;5.50;;;3.10;;
12577;SDS011;6354;51.026;8.968;2022-09-09T02:01:41;7.20;;;3.60;;
12577;SDS011;6354;51.026;8.968;2022-09-09T02:04:27;5.07;;;3.40;;
12577;SDS011;6354;51.026;8.968;2022-09-09T02:07:06;5.60;;;3.70;;
12577;SDS011;6354;51.026;8.968;2022-09-09T02:09:41;6.83;;;4.13;;
12577;SDS011;6354;51.026;8.968;2022-09-09T02:12:16;6.03;;;4.07;;
12577;SDS011;6354;51.026;8.968;2022-09-09T02:14:49;7.50;;;4.40;;
12577;SDS011;6354;51.026;8.968;2022-09-09T02:17:23;6.73;;;4.50;;
12577;SDS011;6354;51.026;8.968;2022-09-09T02:19:54;5.20;;;4.07;;
12577;SDS011;6354;51.026;8.968;2022-09-09T02:22:29;10.17;;;3.83;;
12577;SDS011;6354;51.026;8.968;2022-09-09T02:25:00;5.47;;;4.40;;
12577;SDS011;6354;51.026;8.968;2022-09-09T02:27:30;6.77;;;3.93;;
12577;SDS011;6354;51.026;8.968;2022-09-09T02:29:59;5.27;;;3.87;;
12577;SDS011;6354;51.026;8.968;2022-09-09T02:32:28;8.90;;;3.73;;
12577;SDS011;6354;51.026;8.968;2022-09-09T02:35:01;7.03;;;4.10;;
12577;SDS011;6354;51.026;8.968;2022-09-09T02:37:34;5.93;;;3.80;;
12577;SDS011;6354;51.026;8.968;2022-09-09T02:40:05;7.93;;;4.00;;
12577;SDS011;6354;51.026;8.968;2022-09-09T02:42:39;7.00;;;4.07;;
12577;SDS011;6354;51.026;8.968;2022-09-09T02:45:09;7.90;;;3.90;;
12577;SDS011;6354;51.026;8.968;2022-09-09T02:47:41;7.77;;;4.00;;
12577;SDS011;6354;51.026;8.968;2022-09-09T02:50:16;8.57;;;4.07;;
12577;SDS011;6354;51.026;8.968;2022-09-09T02:52:51;7.23;;;4.07;;
12577;SDS011;6354;51.026;8.968;2022-09-09T02:55:29;7.00;;;4.00;;
12577;SDS011;6354;51.026;8.968;2022-09-09T02:58:07;7.80;;;4.03;;
12577;SDS011;6354;51.026;8.968;2022-09-09T03:00:38;6.63;;;3.90;;
12577;SDS011;6354;51.026;8.968;2022-09-09T03:03:07;9.33;;;4.00;;
12577;SDS011;6354;51.026;8.968;2022-09-09T03:05:36;5.43;;;4.03;;
12577;SDS011;6354;51.026;8.968;2022-09-09T03:08:05;5.43;;;3.23;;
12577;SDS011;6354;51.026;8.968;2022-09-09T03:10:33;7.37;;;4.17;;
12577;SDS011;6354;51.026;8.968;2022-09-09T03:13:03;6.23;;;3.83;;
12577;SDS011;6354;51.026;8.968;2022-09-09T03:15:33;5.97;;;3.13;;
12577;SDS011;6354;51.026;8.968;2022-09-09T03:18:02;5.30;;;3.73;;
12577;SDS011;6354;51.026;8.968;2022-09-09T03:20:30;5.97;;;3.93;;
12577;SDS011;6354;51.026;8.968;2022-09-09T03:22:59;7.83;;;3.93;;
12577;SDS011;6354;51.026;8.968;2022-09-09T03:25:27;5.33;;;4.30;;
12577;SDS011;6354;51.026;8.968;2022-09-09T03:27:56;6.20;;;4.20;;
12577;SDS011;6354;51.026;8.968;2022-09-09T03:30:25;4.80;;;3.43;;
12577;SDS011;6354;51.026;8.968;2022-09-09T03:32:56;6.67;;;4.07;;
12577;SDS011;6354;51.026;8.968;2022-09-09T03:35:24;7.17;;;4.03;;
12577;SDS011;6354;51.026;8.968;2022-09-09T03:37:52;10.40;;;4.33;;
12577;SDS011;6354;51.026;8.968;2022-09-09T03:40:21;5.53;;;4.03;;
12577;SDS011;6354;51.026;8.968;2022-09-09T03:42:49;6.60;;;4.00;;
12577;SDS011;6354;51.026;8.968;2022-09-09T03:45:17;8.17;;;4.00;;
12577;SDS011;6354;51.026;8.968;2022-09-09T03:47:45;7.57;;;4.00;;
12577;SDS011;6354;51.026;8.968;2022-09-09T03:50:15;8.17;;;4.40;;
12577;SDS011;6354;51.026;8.968;2022-09-09T03:52:44;6.80;;;4.07;;
12577;SDS011;6354;51.026;8.968;2022-09-09T03:55:13;6.83;;;4.30;;
12577;SDS011;6354;51.026;8.968;2022-09-09T03:57:41;6.57;;;4.20;;
12577;SDS011;6354;51.026;8.968;2022-09-09T04:00:09;6.43;;;4.13;;
12577;SDS011;6354;51.026;8.968;2022-09-09T04:02:38;6.07;;;3.97;;
12577;SDS011;6354;51.026;8.968;2022-09-09T04:05:06;10.00;;;4.73;;
12577;SDS011;6354;51.026;8.968;2022-09-09T04:07:36;12.27;;;4.10;;
12577;SDS011;6354;51.026;8.968;2022-09-09T04:10:05;4.63;;;3.67;;
12577;SDS011;6354;51.026;8.968;2022-09-09T04:12:34;6.17;;;4.13;;
12577;SDS011;6354;51.026;8.968;2022-09-09T04:15:02;5.77;;;4.10;;
12577;SDS011;6354;51.026;8.968;2022-09-09T04:17:32;8.97;;;4.50;;
12577;SDS011;6354;51.026;8.968;2022-09-09T04:20:02;5.77;;;4.10;;
12577;SDS011;6354;51.026;8.968;2022-09-09T04:22:30;8.10;;;4.07;;
12577;SDS011;6354;51.026;8.968;2022-09-09T04:25:01;7.00;;;4.50;;
12577;SDS011;6354;51.026;8.968;2022-09-09T04:27:30;5.13;;;4.00;;
12577;SDS011;6354;51.026;8.968;2022-09-09T04:29:58;8.80;;;4.10;;
12577;SDS011;6354;51.026;8.968;2022-09-09T04:32:26;6.70;;;3.70;;
12577;SDS011;6354;51.026;8.968;2022-09-09T04:34:54;6.70;;;4.30;;
12577;SDS011;6354;51.026;8.968;2022-09-09T04:37:22;5.90;;;3.97;;
12577;SDS011;6354;51.026;8.968;2022-09-09T04:39:51;7.10;;;4.40;;
12577;SDS011;6354;51.026;8.968;2022-09-09T04:42:20;5.83;;;4.20;;
12577;SDS011;6354;51.026;8.968;2022-09-09T04:44:49;6.97;;;4.60;;
12577;SDS011;6354;51.026;8.968;2022-09-09T04:47:17;9.63;;;4.57;;
12577;SDS011;6354;51.026;8.968;2022-09-09T04:49:45;7.53;;;4.40;;
12577;SDS011;6354;51.026;8.968;2022-09-09T04:52:13;8.90;;;4.93;;
12577;SDS011;6354;51.026;8.968;2022-09-09T04:54:43;7.60;;;4.57;;
12577;SDS011;6354;51.026;8.968;2022-09-09T04:57:11;7.73;;;4.40;;
12577;SDS011;6354;51.026;8.968;2022-09-09T04:59:45;5.77;;;4.17;;
12577;SDS011;6354;51.026;8.968;2022-09-09T05:02:14;6.73;;;4.00;;
12577;SDS011;6354;51.026;8.968;2022-09-09T05:04:42;6.33;;;4.40;;
12577;SDS011;6354;51.026;8.968;2022-09-09T05:07:10;6.83;;;4.63;;
12577;SDS011;6354;51.026;8.968;2022-09-09T05:09:39;7.40;;;4.60;;
12577;SDS011;6354;51.026;8.968;2022-09-09T05:12:07;4.97;;;4.20;;
12577;SDS011;6354;51.026;8.968;2022-09-09T05:14:35;7.80;;;4.70;;
12577;SDS011;6354;51.026;8.968;2022-09-09T05:17:05;6.40;;;4.20;;
12577;SDS011;6354;51.026;8.968;2022-09-09T05:19:33;4.80;;;3.90;;
12577;SDS011;6354;51.026;8.968;2022-09-09T05:22:01;6.13;;;4.00;;
12577;SDS011;6354;51.026;8.968;2022-09-09T05:24:30;7.87;;;4.43;;
12577;SDS011;6354;51.026;8.968;2022-09-09T05:26:59;8.67;;;4.40;;
12577;SDS011;6354;51.026;8.968;2022-09-09T05:29:28;9.00;;;4.40;;
12577;SDS011;6354;51.026;8.968;2022-09-09T05:31:59;6.87;;;4.30;;
12577;SDS011;6354;51.026;8.968;2022-09-09T05:34:29;8.27;;;4.77;;
12577;SDS011;6354;51.026;8.968;2022-09-09T05:36:57;9.13;;;4.20;;
12577;SDS011;6354;51.026;8.968;2022-09-09T05:39:25;8.27;;;4.37;;
12577;SDS011;6354;51.026;8.968;2022-09-09T05:41:53;8.53;;;4.27;;
12577;SDS011;6354;51.026;8.968;2022-09-09T05:44:21;8.97;;;4.57;;
12577;SDS011;6354;51.026;8.968;2022-09-09T05:46:53;10.90;;;4.73;;
12577;SDS011;6354;51.026;8.968;2022-09-09T05:49:22;8.87;;;4.53;;
12577;SDS011;6354;51.026;8.968;2022-09-09T05:51:51;7.50;;;4.00;;
12577;SDS011;6354;51.026;8.968;2022-09-09T05:54:20;8.33;;;4.00;;
12577;SDS011;6354;51.026;8.968;2022-09-09T05:56:48;6.67;;;3.87;;
12577;SDS011;6354;51.026;8.968;2022-09-09T05:59:17;8.07;;;4.30;;
12577;SDS011;6354;51.026;8.968;2022-09-09T06:01:45;7.70;;;4.15;;
12577;SDS011;6354;51.026;8.968;2022-09-09T06:04:14;11.43;;;4.53;;
12577;SDS011;6354;51.026;8.968;2022-09-09T06:06:42;8.30;;;3.70;;
12577;SDS011;6354;51.026;8.968;2022-09-09T06:09:11;5.93;;;4.10;;
12577;SDS011;6354;51.026;8.968;2022-09-09T06:11:40;9.35;;;4.10;;
12577;SDS011;6354;51.026;8.968;2022-09-09T06:14:08;6.10;;;4.03;;
12577;SDS011;6354;51.026;8.968;2022-09-09T06:16:36;8.95;;;4.18;;
12577;SDS011;6354;51.026;8.968;2022-09-09T06:19:05;7.30;;;4.30;;
12577;SDS011;6354;51.026;8.968;2022-09-09T06:21:34;8.77;;;4.07;;
12577;SDS011;6354;51.026;8.968;2022-09-09T06:24:03;8.48;;;3.80;;
12577;SDS011;6354;51.026;8.968;2022-09-09T06:26:35;7.00;;;3.65;;
12577;SDS011;6354;51.026;8.968;2022-09-09T06:29:07;10.80;;;4.18;;
12577;SDS011;6354;51.026;8.968;2022-09-09T06:31:36;6.43;;;4.38;;
12577;SDS011;6354;51.026;8.968;2022-09-09T06:34:05;8.07;;;4.70;;
12577;SDS011;6354;51.026;8.968;2022-09-09T06:36:35;6.83;;;4.23;;
12577;SDS011;6354;51.026;8.968;2022-09-09T06:39:04;8.85;;;4.20;;
12577;SDS011;6354;51.026;8.968;2022-09-09T06:41:41;10.02;;;4.93;;
12577;SDS011;6354;51.026;8.968;2022-09-09T06:44:09;7.75;;;4.65;;
12577;SDS011;6354;51.026;8.968;2022-09-09T06:46:39;7.97;;;5.00;;
12577;SDS011;6354;51.026;8.968;2022-09-09T06:49:07;10.25;;;5.07;;
12577;SDS011;6354;51.026;8.968;2022-09-09T06:51:36;12.15;;;5.47;;
12577;SDS011;6354;51.026;8.968;2022-09-09T06:54:09;8.50;;;5.07;;
12577;SDS011;6354;51.026;8.968;2022-09-09T06:56:39;10.00;;;5.10;;
12577;SDS011;6354;51.026;8.968;2022-09-09T06:59:10;7.80;;;4.85;;
12577;SDS011;6354;51.026;8.968;2022-09-09T07:01:39;8.27;;;5.30;;
12577;SDS011;6354;51.026;8.968;2022-09-09T07:04:08;11.38;;;5.22;;
12577;SDS011;6354;51.026;8.968;2022-09-09T07:06:37;6.35;;;4.60;;
12577;SDS011;6354;51.026;8.968;2022-09-09T07:09:07;9.15;;;5.50;;
12577;SDS011;6354;51.026;8.968;2022-09-09T07:11:38;8.30;;;5.10;;
12577;SDS011;6354;51.026;8.968;2022-09-09T07:14:08;7.93;;;4.90;;
12577;SDS011;6354;51.026;8.968;2022-09-09T07:16:39;11.25;;;5.60;;
12577;SDS011;6354;51.026;8.968;2022-09-09T07:19:07;11.65;;;5.55;;
12577;SDS011;6354;51.026;8.968;2022-09-09T07:21:35;9.02;;;5.13;;
12577;SDS011;6354;51.026;8.968;2022-09-09T07:24:03;11.98;;;6.10;;
12577;SDS011;6354;51.026;8.968;2022-09-09T07:26:33;6.68;;;5.70;;
12577;SDS011;6354;51.026;8.968;2022-09-09T07:29:02;7.85;;;5.55;;
12577;SDS011;6354;51.026;8.968;2022-09-09T07:31:32;10.50;;;5.43;;
12577;SDS011;6354;51.026;8.968;2022-09-09T07:34:03;8.20;;;5.30;;
12577;SDS011;6354;51.026;8.968;2022-09-09T07:36:32;7.57;;;5.43;;
12577;SDS011;6354;51.026;8.968;2022-09-09T07:39:03;9.18;;;5.10;;
12577;SDS011;6354;51.026;8.968;2022-09-09T07:41:34;9.75;;;4.53;;
12577;SDS011;6354;51.026;8.968;2022-09-09T07:44:04;7.18;;;4.95;;
12577;SDS011;6354;51.026;8.968;2022-09-09T07:46:35;9.02;;;4.90;;
12577;SDS011;6354;51.026;8.968;2022-09-09T07:49:05;7.00;;;4.30;;
12577;SDS011;6354;51.026;8.968;2022-09-09T07:51:34;9.05;;;4.90;;
12577;SDS011;6354;51.026;8.968;2022-09-09T07:54:04;6.43;;;5.05;;
12577;SDS011;6354;51.026;8.968;2022-09-09T07:56:33;8.52;;;4.75;;
12577;SDS011;6354;51.026;8.968;2022-09-09T07:59:05;7.53;;;4.50;;
12577;SDS011;6354;51.026;8.968;2022-09-09T08:01:37;9.70;;;4.82;;
12577;SDS011;6354;51.026;8.968;2022-09-09T08:04:07;6.82;;;4.65;;
12577;SDS011;6354;51.026;8.968;2022-09-09T08:06:39;7.38;;;4.90;;
12577;SDS011;6354;51.026;8.968;2022-09-09T08:09:09;11.27;;;4.35;;
12577;SDS011;6354;51.026;8.968;2022-09-09T08:11:37;6.90;;;4.32;;
12577;SDS011;6354;51.026;8.968;2022-09-09T08:14:06;5.03;;;3.65;;
12577;SDS011;6354;51.026;8.968;2022-09-09T08:16:37;8.55;;;3.70;;
12577;SDS011;6354;51.026;8.968;2022-09-09T08:19:07;5.47;;;3.85;;
12577;SDS011;6354;51.026;8.968;2022-09-09T08:21:36;6.47;;;4.05;;
12577;SDS011;6354;51.026;8.968;2022-09-09T08:24:06;6.68;;;3.72;;
12577;SDS011;6354;51.026;8.968;2022-09-09T08:26:37;7.97;;;4.32;;
12577;SDS011;6354;51.026;8.968;2022-09-09T08:29:08;6.53;;;3.88;;
12577;SDS011;6354;51.026;8.968;2022-09-09T08:31:39;8.13;;;3.58;;
12577;SDS011;6354;51.026;8.968;2022-09-09T08:34:10;9.23;;;3.83;;
12577;SDS011;6354;51.026;8.968;2022-09-09T08:36:39;4.65;;;3.03;;
12577;SDS011;6354;51.026;8.968;2022-09-09T08:39:09;6.82;;;3.30;;
12577;SDS011;6354;51.026;8.968;2022-09-09T08:41:51;7.03;;;3.08;;
12577;SDS011;6354;51.026;8.968;2022-09-09T08:44:30;7.13;;;3.08;;
12577;SDS011;6354;51.026;8.968;2022-09-09T08:47:17;6.10;;;2.40;;
12577;SDS011;6354;51.026;8.968;2022-09-09T08:50:02;6.78;;;2.65;;
12577;SDS011;6354;51.026;8.968;2022-09-09T08:52:44;4.53;;;2.72;;
12577;SDS011;6354;51.026;8.968;2022-09-09T08:55:21;7.43;;;2.30;;
12577;SDS011;6354;51.026;8.968;2022-09-09T08:57:53;7.90;;;2.50;;
12577;SDS011;6354;51.026;8.968;2022-09-09T09:00:25;11.07;;;3.13;;
12577;SDS011;6354;51.026;8.968;2022-09-09T09:03:02;10.57;;;2.78;;
12577;SDS011;6354;51.026;8.968;2022-09-09T09:05:41;7.53;;;2.60;;
12577;SDS011;6354;51.026;8.968;2022-09-09T09:08:16;6.35;;;2.38;;
12577;SDS011;6354;51.026;8.968;2022-09-09T09:10:53;6.97;;;2.80;;
12577;SDS011;6354;51.026;8.968;2022-09-09T09:13:26;9.52;;;2.80;;
12577;SDS011;6354;51.026;8.968;2022-09-09T09:16:11;5.35;;;2.70;;
12577;SDS011;6354;51.026;8.968;2022-09-09T09:18:48;8.52;;;2.80;;
12577;SDS011;6354;51.026;8.968;2022-09-09T09:21:18;7.22;;;2.53;;
12577;SDS011;6354;51.026;8.968;2022-09-09T09:23:54;7.75;;;2.53;;
12577;SDS011;6354;51.026;8.968;2022-09-09T09:26:27;8.05;;;2.70;;
12577;SDS011;6354;51.026;8.968;2022-09-09T09:28:59;10.25;;;2.95;;
12577;SDS011;6354;51.026;8.968;2022-09-09T09:31:35;9.15;;;2.90;;
12577;SDS011;6354;51.026;8.968;2022-09-09T09:34:05;9.68;;;2.72;;
12577;SDS011;6354;51.026;8.968;2022-09-09T09:36:39;11.40;;;3.05;;
12577;SDS011;6354;51.026;8.968;2022-09-09T09:39:10;10.13;;;3.45;;
12577;SDS011;6354;51.026;8.968;2022-09-09T09:42:12;10.50;;;2.92;;
12577;SDS011;6354;51.026;8.968;2022-09-09T09:44:48;5.38;;;2.65;;
12577;SDS011;6354;51.026;8.968;2022-09-09T09:47:17;9.50;;;3.05;;
12577;SDS011;6354;51.026;8.968;2022-09-09T09:49:54;8.93;;;3.13;;
12577;SDS011;6354;51.026;8.968;2022-09-09T09:52:25;9.27;;;3.20;;
12577;SDS011;6354;51.026;8.968;2022-09-09T09:54:56;9.30;;;2.67;;
12577;SDS011;6354;51.026;8.968;2022-09-09T09:57:32;4.28;;;2.40;;
12577;SDS011;6354;51.026;8.968;2022-09-09T10:00:03;8.60;;;2.55;;
12577;SDS011;6354;51.026;8.968;2022-09-09T10:02:40;5.70;;;2.15;;
12577;SDS011;6354;51.026;8.968;2022-09-09T10:05:14;6.93;;;2.53;;
12577;SDS011;6354;51.026;8.968;2022-09-09T10:08:01;5.00;;;2.20;;
12577;SDS011;6354;51.026;8.968;2022-09-09T10:10:37;7.13;;;2.38;;
12577;SDS011;6354;51.026;8.968;2022-09-09T10:13:16;6.50;;;2.10;;
12577;SDS011;6354;51.026;8.968;2022-09-09T10:15:52;7.50;;;2.60;;
12577;SDS011;6354;51.026;8.968;2022-09-09T10:18:35;10.82;;;2.50;;
12577;SDS011;6354;51.026;8.968;2022-09-09T10:21:15;4.40;;;2.20;;
12577;SDS011;6354;51.026;8.968;2022-09-09T10:24:00;5.70;;;2.15;;
12577;SDS011;6354;51.026;8.968;2022-09-09T10:26:40;3.88;;;1.90;;
12577;SDS011;6354;51.026;8.968;2022-09-09T10:29:20;6.40;;;2.20;;
12577;SDS011;6354;51.026;8.968;2022-09-09T10:32:00;5.10;;;1.88;;
12577;SDS011;6354;51.026;8.968;2022-09-09T10:34:41;5.28;;;1.70;;
12577;SDS011;6354;51.026;8.968;2022-09-09T10:37:28;4.78;;;2.25;;
12577;SDS011;6354;51.026;8.968;2022-09-09T10:40:15;3.70;;;1.88;;
12577;SDS011;6354;51.026;8.968;2022-09-09T10:42:58;4.50;;;2.00;;
12577;SDS011;6354;51.026;8.968;2022-09-09T10:45:33;8.63;;;2.92;;
12577;SDS011;6354;51.026;8.968;2022-09-09T10:48:18;6.35;;;2.35;;
12577;SDS011;6354;51.026;8.968;2022-09-09T10:51:15;5.15;;;2.20;;
12577;SDS011;6354;51.026;8.968;2022-09-09T10:53:57;7.80;;;2.35;;
12577;SDS011;6354;51.026;8.968;2022-09-09T10:56:41;6.40;;;1.92;;
12577;SDS011;6354;51.026;8.968;2022-09-09T10:59:13;4.60;;;1.65;;
12577;SDS011;6354;51.026;8.968;2022-09-09T11:01:47;4.90;;;1.63;;
12577;SDS011;6354;51.026;8.968;2022-09-09T11:04:21;4.22;;;1.73;;
12577;SDS011;6354;51.026;8.968;2022-09-09T11:06:53;5.53;;;1.95;;
12577;SDS011;6354;51.026;8.968;2022-09-09T11:09:25;3.95;;;2.05;;
12577;SDS011;6354;51.026;8.968;2022-09-09T11:11:57;5.13;;;2.03;;
12577;SDS011;6354;51.026;8.968;2022-09-09T11:14:29;4.25;;;1.90;;
12577;SDS011;6354;51.026;8.968;2022-09-09T11:17:04;6.75;;;2.08;;
12577;SDS011;6354;51.026;8.968;2022-09-09T11:19:37;7.35;;;2.40;;
12577;SDS011;6354;51.026;8.968;2022-09-09T11:22:07;6.68;;;2.70;;
12577;SDS011;6354;51.026;8.968;2022-09-09T11:24:47;4.65;;;2.03;;
12577;SDS011;6354;51.026;8.968;2022-09-09T11:27:21;6.78;;;2.40;;
12577;SDS011;6354;51.026;8.968;2022-09-09T11:33:14;4.63;;;2.03;;
12577;SDS011;6354;51.026;8.968;2022-09-09T11:36:02;6.47;;;2.60;;
12577;SDS011;6354;51.026;8.968;2022-09-09T11:38:44;4.90;;;2.50;;
12577;SDS011;6354;51.026;8.968;2022-09-09T11:41:15;7.75;;;2.70;;
12577;SDS011;6354;51.026;8.968;2022-09-09T11:43:47;7.95;;;2.83;;
12577;SDS011;6354;51.026;8.968;2022-09-09T11:46:17;7.55;;;2.53;;
12577;SDS011;6354;51.026;8.968;2022-09-09T11:48:57;3.38;;;1.95;;
12577;SDS011;6354;51.026;8.968;2022-09-09T11:51:28;3.85;;;1.42;;
12577;SDS011;6354;51.026;8.968;2022-09-09T11:53:57;4.03;;;1.27;;
12577;SDS011;6354;51.026;8.968;2022-09-09T11:56:29;3.75;;;1.13;;
12577;SDS011;6354;51.026;8.968;2022-09-09T11:59:00;4.18;;;0.95;;
12577;SDS011;6354;51.026;8.968;2022-09-09T12:01:33;2.97;;;1.10;;
12577;SDS011;6354;51.026;8.968;2022-09-09T12:04:14;3.13;;;1.30;;
12577;SDS011;6354;51.026;8.968;2022-09-09T12:06:49;2.30;;;1.20;;
12577;SDS011;6354;51.026;8.968;2022-09-09T12:09:21;5.22;;;1.80;;
12577;SDS011;6354;51.026;8.968;2022-09-09T12:12:06;3.25;;;1.60;;
12577;SDS011;6354;51.026;8.968;2022-09-09T12:14:35;5.30;;;1.98;;
12577;SDS011;6354;51.026;8.968;2022-09-09T12:17:17;2.38;;;1.35;;
12577;SDS011;6354;51.026;8.968;2022-09-09T12:19:47;3.45;;;1.70;;
12577;SDS011;6354;51.026;8.968;2022-09-09T12:22:18;4.13;;;1.90;;
12577;SDS011;6354;51.026;8.968;2022-09-09T12:24:55;4.18;;;1.52;;
12577;SDS011;6354;51.026;8.968;2022-09-09T12:27:36;4.93;;;1.92;;
12577;SDS011;6354;51.026;8.968;2022-09-09T12:30:11;4.03;;;1.80;;
12577;SDS011;6354;51.026;8.968;2022-09-09T12:32:42;3.55;;;1.92;;
12577;SDS011;6354;51.026;8.968;2022-09-09T12:35:11;4.32;;;1.92;;
12577;SDS011;6354;51.026;8.968;2022-09-09T12:37:44;3.67;;;1.70;;
12577;SDS011;6354;51.026;8.968;2022-09-09T12:40:20;7.07;;;1.90;;
12577;SDS011;6354;51.026;8.968;2022-09-09T12:42:50;4.43;;;1.60;;
12577;SDS011;6354;51.026;8.968;2022-09-09T12:45:20;3.60;;;1.63;;
12577;SDS011;6354;51.026;8.968;2022-09-09T12:47:50;4.22;;;2.00;;
12577;SDS011;6354;51.026;8.968;2022-09-09T12:50:22;6.18;;;2.10;;
12577;SDS011;6354;51.026;8.968;2022-09-09T12:52:52;3.00;;;1.58;;
12577;SDS011;6354;51.026;8.968;2022-09-09T12:55:25;6.93;;;2.22;;
12577;SDS011;6354;51.026;8.968;2022-09-09T12:57:57;5.25;;;2.25;;
12577;SDS011;6354;51.026;8.968;2022-09-09T13:00:26;6.15;;;2.53;;
12577;SDS011;6354;51.026;8.968;2022-09-09T13:02:57;6.38;;;2.70;;
12577;SDS011;6354;51.026;8.968;2022-09-09T13:05:27;5.60;;;2.80;;
12577;SDS011;6354;51.026;8.968;2022-09-09T13:08:01;5.93;;;2.88;;
12577;SDS011;6354;51.026;8.968;2022-09-09T13:10:31;5.05;;;2.83;;
12577;SDS011;6354;51.026;8.968;2022-09-09T13:13:21;5.70;;;2.60;;
12577;SDS011;6354;51.026;8.968;2022-09-09T13:15:51;5.35;;;2.55;;
12577;SDS011;6354;51.026;8.968;2022-09-09T13:18:21;7.00;;;2.83;;
12577;SDS011;6354;51.026;8.968;2022-09-09T13:20:51;6.25;;;2.10;;
12577;SDS011;6354;51.026;8.968;2022-09-09T13:23:20;6.65;;;2.20;;
12577;SDS011;6354;51.026;8.968;2022-09-09T13:25:52;6.22;;;2.63;;
12577;SDS011;6354;51.026;8.968;2022-09-09T13:28:23;4.60;;;2.22;;
12577;SDS011;6354;51.026;8.968;2022-09-09T13:30:59;7.10;;;2.70;;
12577;SDS011;6354;51.026;8.968;2022-09-09T13:33:30;5.35;;;2.30;;
12577;SDS011;6354;51.026;8.968;2022-09-09T13:36:01;4.32;;;2.22;;
12577;SDS011;6354;51.026;8.968;2022-09-09T13:38:32;3.60;;;1.90;;
12577;SDS011;6354;51.026;8.968;2022-09-09T13:41:03;4.60;;;1.95;;
12577;SDS011;6354;51.026;8.968;2022-09-09T13:43:35;4.00;;;2.05;;
12577;SDS011;6354;51.026;8.968;2022-09-09T13:46:20;6.03;;;2.17;;
12577;SDS011;6354;51.026;8.968;2022-09-09T13:48:56;4.72;;;2.15;;
12577;SDS011;6354;51.026;8.968;2022-09-09T13:51:33;4.07;;;2.00;;
12577;SDS011;6354;51.026;8.968;2022-09-09T13:54:04;3.45;;;1.73;;
12577;SDS011;6354;51.026;8.968;2022-09-09T13:56:33;5.35;;;2.00;;
12577;SDS011;6354;51.026;8.968;2022-09-09T13:59:03;5.45;;;2.20;;
12577;SDS011;6354;51.026;8.968;2022-09-09T14:01:32;4.45;;;2.20;;
12577;SDS011;6354;51.026;8.968;2022-09-09T14:04:01;5.43;;;2.55;;
12577;SDS011;6354;51.026;8.968;2022-09-09T14:06:29;5.80;;;2.40;;
12577;SDS011;6354;51.026;8.968;2022-09-09T14:08:58;5.70;;;2.40;;
12577;SDS011;6354;51.026;8.968;2022-09-09T14:11:26;4.72;;;2.63;;
12577;SDS011;6354;51.026;8.968;2022-09-09T14:13:54;6.75;;;2.70;;
12577;SDS011;6354;51.026;8.968;2022-09-09T14:16:23;5.43;;;2.47;;
12577;SDS011;6354;51.026;8.968;2022-09-09T14:18:54;4.18;;;2.22;;
12577;SDS011;6354;51.026;8.968;2022-09-09T14:21:22;7.00;;;2.47;;
12577;SDS011;6354;51.026;8.968;2022-09-09T14:23:51;6.43;;;2.25;;
12577;SDS011;6354;51.026;8.968;2022-09-09T14:26:19;5.60;;;2.50;;
12577;SDS011;6354;51.026;8.968;2022-09-09T14:28:48;3.55;;;2.05;;
12577;SDS011;6354;51.026;8.968;2022-09-09T14:31:21;4.32;;;1.70;;
12577;SDS011;6354;51.026;8.968;2022-09-09T14:33:51;3.65;;;1.90;;
12577;SDS011;6354;51.026;8.968;2022-09-09T14:36:19;4.63;;;1.73;;
12577;SDS011;6354;51.026;8.968;2022-09-09T14:38:47;3.45;;;1.70;;
12577;SDS011;6354;51.026;8.968;2022-09-09T14:41:16;3.38;;;1.92;;
12577;SDS011;6354;51.026;8.968;2022-09-09T14:43:46;4.55;;;2.00;;
12577;SDS011;6354;51.026;8.968;2022-09-09T14:46:14;3.00;;;1.73;;
12577;SDS011;6354;51.026;8.968;2022-09-09T14:48:44;5.88;;;1.77;;
12577;SDS011;6354;51.026;8.968;2022-09-09T14:51:17;4.07;;;1.58;;
12577;SDS011;6354;51.026;8.968;2022-09-09T14:53:50;3.25;;;1.58;;
12577;SDS011;6354;51.026;8.968;2022-09-09T14:56:20;2.83;;;1.10;;
12577;SDS011;6354;51.026;8.968;2022-09-09T14:58:50;1.98;;;0.93;;
12577;SDS011;6354;51.026;8.968;2022-09-09T15:01:20;3.05;;;1.05;;
12577;SDS011;6354;51.026;8.968;2022-09-09T15:03:50;1.90;;;0.90;;
12577;SDS011;6354;51.026;8.968;2022-09-09T15:06:21;2.90;;;1.13;;
12577;SDS011;6354;51.026;8.968;2022-09-09T15:08:51;2.20;;;1.20;;
12577;SDS011;6354;51.026;8.968;2022-09-09T15:11:20;3.92;;;1.30;;
12577;SDS011;6354;51.026;8.968;2022-09-09T15:13:50;4.55;;;1.38;;
12577;SDS011;6354;51.026;8.968;2022-09-09T15:16:21;5.53;;;1.40;;
12577;SDS011;6354;51.026;8.968;2022-09-09T15:18:51;3.45;;;1.15;;
12577;SDS011;6354;51.026;8.968;2022-09-09T15:21:25;3.08;;;1.58;;
12577;SDS011;6354;51.026;8.968;2022-09-09T15:23:54;4.20;;;1.45;;
12577;SDS011;6354;51.026;8.968;2022-09-09T15:26:23;2.85;;;1.45;;
12577;SDS011;6354;51.026;8.968;2022-09-09T15:28:52;4.65;;;1.50;;
12577;SDS011;6354;51.026;8.968;2022-09-09T15:31:20;4.13;;;1.60;;
12577;SDS011;6354;51.026;8.968;2022-09-09T15:33:50;3.05;;;1.42;;
12577;SDS011;6354;51.026;8.968;2022-09-09T15:36:20;4.25;;;1.38;;
12577;SDS011;6354;51.026;8.968;2022-09-09T15:38:51;5.93;;;1.33;;
12577;SDS011;6354;51.026;8.968;2022-09-09T15:41:20;4.55;;;1.67;;